<?xml version="1.0" encoding="utf-8"?>
<gpx xmlns:xsi="http://www.w3.org/2001/XMLSchema-instance" xmlns:xsd="http://www.w3.org/2001/XMLSchema" version="1.1" creator="Shapelink.com" xmlns="http://www.topografix.com/GPX/1/1" xmlns:gpxtpx="http://www.garmin.com/xmlschemas/TrackPointExtension/v1">
  <metadata>
    <name>Löpning 6.08 km, 2019-07-15</name>
    <desc></desc>
    <author><name>Marian Moron</name></author> 
    <time>2019-07-15T08:54:17Z</time>
  </metadata>
  <trk>
    <name>Löpning 6.08 km, 2019-07-15</name>
    <trkseg>
      <trkpt lat="51.229971718219" lon="4.458727313671">
        <ele>0</ele>
        <time>2019-07-15T08:54:17Z</time>
      </trkpt>
      <trkpt lat="51.229978507558" lon="4.458812641413">
        <ele>0</ele>
        <time>2019-07-15T08:54:19Z</time>
      </trkpt>
      <trkpt lat="51.230175063113" lon="4.458801744943">
        <ele>1.4</ele>
        <time>2019-07-15T08:54:26Z</time>
      </trkpt>
      <trkpt lat="51.230373546505" lon="4.458882043545">
        <ele>0.8</ele>
        <time>2019-07-15T08:54:35Z</time>
      </trkpt>
      <trkpt lat="51.23044185899" lon="4.459156466951">
        <ele>2.4</ele>
        <time>2019-07-15T08:54:42Z</time>
      </trkpt>
      <trkpt lat="51.230496676616" lon="4.459442708836">
        <ele>2.8</ele>
        <time>2019-07-15T08:54:49Z</time>
      </trkpt>
      <trkpt lat="51.230544285808" lon="4.459752839136">
        <ele>4.4</ele>
        <time>2019-07-15T08:54:57Z</time>
      </trkpt>
      <trkpt lat="51.230708235772" lon="4.459799358681">
        <ele>6.2</ele>
        <time>2019-07-15T08:55:05Z</time>
      </trkpt>
      <trkpt lat="51.230903031128" lon="4.45970975617">
        <ele>7.8</ele>
        <time>2019-07-15T08:55:14Z</time>
      </trkpt>
      <trkpt lat="51.231093048801" lon="4.459632894147">
        <ele>6.6</ele>
        <time>2019-07-15T08:55:21Z</time>
      </trkpt>
      <trkpt lat="51.231302093387" lon="4.459622416772">
        <ele>5.2</ele>
        <time>2019-07-15T08:55:28Z</time>
      </trkpt>
      <trkpt lat="51.231497559295" lon="4.459637252735">
        <ele>6</ele>
        <time>2019-07-15T08:55:37Z</time>
      </trkpt>
      <trkpt lat="51.231694869221" lon="4.45969718332">
        <ele>3</ele>
        <time>2019-07-15T08:55:44Z</time>
      </trkpt>
      <trkpt lat="51.231746501725" lon="4.459793658989">
        <ele>1.8</ele>
        <time>2019-07-15T08:55:47Z</time>
      </trkpt>
      <trkpt lat="51.231825123947" lon="4.46005676683">
        <ele>1</ele>
        <time>2019-07-15T08:55:53Z</time>
      </trkpt>
      <trkpt lat="51.2319078533" lon="4.460355665384">
        <ele>1.4</ele>
        <time>2019-07-15T08:55:59Z</time>
      </trkpt>
      <trkpt lat="51.23203022904" lon="4.460484830463">
        <ele>0.4</ele>
        <time>2019-07-15T08:56:06Z</time>
      </trkpt>
      <trkpt lat="51.232222509826" lon="4.460369914614">
        <ele>0.6</ele>
        <time>2019-07-15T08:56:14Z</time>
      </trkpt>
      <trkpt lat="51.232410515843" lon="4.460276121153">
        <ele>1.6</ele>
        <time>2019-07-15T08:56:22Z</time>
      </trkpt>
      <trkpt lat="51.232589972322" lon="4.460171934136">
        <ele>5</ele>
        <time>2019-07-15T08:56:30Z</time>
      </trkpt>
      <trkpt lat="51.232764902575" lon="4.460067244205">
        <ele>6.6</ele>
        <time>2019-07-15T08:56:37Z</time>
      </trkpt>
      <trkpt lat="51.232840591132" lon="4.460087276946">
        <ele>8.8</ele>
        <time>2019-07-15T08:56:39Z</time>
      </trkpt>
      <trkpt lat="51.232943437045" lon="4.460377374505">
        <ele>9</ele>
        <time>2019-07-15T08:56:47Z</time>
      </trkpt>
      <trkpt lat="51.233010240788" lon="4.460654312481">
        <ele>7.2</ele>
        <time>2019-07-15T08:56:53Z</time>
      </trkpt>
      <trkpt lat="51.233075200513" lon="4.460958994546">
        <ele>6</ele>
        <time>2019-07-15T08:57:00Z</time>
      </trkpt>
      <trkpt lat="51.233120295135" lon="4.461243476232">
        <ele>5.8</ele>
        <time>2019-07-15T08:57:08Z</time>
      </trkpt>
      <trkpt lat="51.233174442209" lon="4.461547236288">
        <ele>5.4</ele>
        <time>2019-07-15T08:57:16Z</time>
      </trkpt>
      <trkpt lat="51.233216351709" lon="4.461855606389">
        <ele>3</ele>
        <time>2019-07-15T08:57:24Z</time>
      </trkpt>
      <trkpt lat="51.233260775779" lon="4.462167915983">
        <ele>1</ele>
        <time>2019-07-15T08:57:32Z</time>
      </trkpt>
      <trkpt lat="51.233307295324" lon="4.462460611931">
        <ele>1.2</ele>
        <time>2019-07-15T08:57:40Z</time>
      </trkpt>
      <trkpt lat="51.233354401602" lon="4.462757079734">
        <ele>3</ele>
        <time>2019-07-15T08:57:48Z</time>
      </trkpt>
      <trkpt lat="51.233403770993" lon="4.463053044623">
        <ele>5.2</ele>
        <time>2019-07-15T08:57:56Z</time>
      </trkpt>
      <trkpt lat="51.233443585018" lon="4.463359989801">
        <ele>5.6</ele>
        <time>2019-07-15T08:58:04Z</time>
      </trkpt>
      <trkpt lat="51.233482057939" lon="4.463672802309">
        <ele>4.2</ele>
        <time>2019-07-15T08:58:12Z</time>
      </trkpt>
      <trkpt lat="51.233491864762" lon="4.463805320148">
        <ele>4.4</ele>
        <time>2019-07-15T08:58:15Z</time>
      </trkpt>
      <trkpt lat="51.233519441213" lon="4.464107906738">
        <ele>5.4</ele>
        <time>2019-07-15T08:58:23Z</time>
      </trkpt>
      <trkpt lat="51.233593872485" lon="4.46440362017">
        <ele>4.6</ele>
        <time>2019-07-15T08:58:31Z</time>
      </trkpt>
      <trkpt lat="51.233644163885" lon="4.464706039122">
        <ele>5.2</ele>
        <time>2019-07-15T08:58:39Z</time>
      </trkpt>
      <trkpt lat="51.233707950144" lon="4.464990688446">
        <ele>4.8</ele>
        <time>2019-07-15T08:58:47Z</time>
      </trkpt>
      <trkpt lat="51.23375019492" lon="4.465274918675">
        <ele>4.6</ele>
        <time>2019-07-15T08:58:55Z</time>
      </trkpt>
      <trkpt lat="51.233802665614" lon="4.465620085317">
        <ele>4.4</ele>
        <time>2019-07-15T08:59:03Z</time>
      </trkpt>
      <trkpt lat="51.233829320056" lon="4.465923845373">
        <ele>3.2</ele>
        <time>2019-07-15T08:59:12Z</time>
      </trkpt>
      <trkpt lat="51.233885646424" lon="4.466231293465">
        <ele>3.8</ele>
        <time>2019-07-15T08:59:21Z</time>
      </trkpt>
      <trkpt lat="51.233920263671" lon="4.46651921173">
        <ele>4.2</ele>
        <time>2019-07-15T08:59:29Z</time>
      </trkpt>
      <trkpt lat="51.233978098781" lon="4.466806878538">
        <ele>3.4</ele>
        <time>2019-07-15T08:59:37Z</time>
      </trkpt>
      <trkpt lat="51.234015482055" lon="4.467103346341">
        <ele>3.6</ele>
        <time>2019-07-15T08:59:45Z</time>
      </trkpt>
      <trkpt lat="51.234059570849" lon="4.467407776949">
        <ele>5</ele>
        <time>2019-07-15T08:59:53Z</time>
      </trkpt>
      <trkpt lat="51.234099384874" lon="4.467749590831">
        <ele>4.4</ele>
        <time>2019-07-15T09:00:01Z</time>
      </trkpt>
      <trkpt lat="51.234190328489" lon="4.468212523168">
        <ele>6.2</ele>
        <time>2019-07-15T09:00:13Z</time>
      </trkpt>
      <trkpt lat="51.234227460306" lon="4.468494574103">
        <ele>6.4</ele>
        <time>2019-07-15T09:00:18Z</time>
      </trkpt>
      <trkpt lat="51.234277751706" lon="4.468805542593">
        <ele>6.4</ele>
        <time>2019-07-15T09:00:24Z</time>
      </trkpt>
      <trkpt lat="51.234322175776" lon="4.469136795281">
        <ele>6.4</ele>
        <time>2019-07-15T09:00:30Z</time>
      </trkpt>
      <trkpt lat="51.234365594018" lon="4.469471819824">
        <ele>5.2</ele>
        <time>2019-07-15T09:00:36Z</time>
      </trkpt>
      <trkpt lat="51.234415214866" lon="4.469755798596">
        <ele>5</ele>
        <time>2019-07-15T09:00:41Z</time>
      </trkpt>
      <trkpt lat="51.234464668076" lon="4.47004715344">
        <ele>5.2</ele>
        <time>2019-07-15T09:00:46Z</time>
      </trkpt>
      <trkpt lat="51.234515378571" lon="4.470373963721">
        <ele>6</ele>
        <time>2019-07-15T09:00:52Z</time>
      </trkpt>
      <trkpt lat="51.23458000302" lon="4.470674203379">
        <ele>6.2</ele>
        <time>2019-07-15T09:00:58Z</time>
      </trkpt>
      <trkpt lat="51.234624007995" lon="4.470981483833">
        <ele>6.8</ele>
        <time>2019-07-15T09:01:04Z</time>
      </trkpt>
      <trkpt lat="51.234674383214" lon="4.47127091084">
        <ele>8.4</ele>
        <time>2019-07-15T09:01:10Z</time>
      </trkpt>
      <trkpt lat="51.234716963266" lon="4.47155170449">
        <ele>10</ele>
        <time>2019-07-15T09:01:16Z</time>
      </trkpt>
      <trkpt lat="51.2347660812" lon="4.471839874212">
        <ele>10.6</ele>
        <time>2019-07-15T09:01:22Z</time>
      </trkpt>
      <trkpt lat="51.234823664853" lon="4.472162996457">
        <ele>11.6</ele>
        <time>2019-07-15T09:01:29Z</time>
      </trkpt>
      <trkpt lat="51.234873788615" lon="4.472442532822">
        <ele>11.6</ele>
        <time>2019-07-15T09:01:35Z</time>
      </trkpt>
      <trkpt lat="51.234936066132" lon="4.472721985368">
        <ele>11.4</ele>
        <time>2019-07-15T09:01:41Z</time>
      </trkpt>
      <trkpt lat="51.23500747992" lon="4.472999007163">
        <ele>12</ele>
        <time>2019-07-15T09:01:47Z</time>
      </trkpt>
      <trkpt lat="51.235121222303" lon="4.47327669951">
        <ele>16</ele>
        <time>2019-07-15T09:01:53Z</time>
      </trkpt>
      <trkpt lat="51.235165730192" lon="4.473582555041">
        <ele>17.4</ele>
        <time>2019-07-15T09:01:59Z</time>
      </trkpt>
      <trkpt lat="51.23520948371" lon="4.473883046156">
        <ele>15.2</ele>
        <time>2019-07-15T09:02:05Z</time>
      </trkpt>
      <trkpt lat="51.235267737915" lon="4.474170461507">
        <ele>13.8</ele>
        <time>2019-07-15T09:02:11Z</time>
      </trkpt>
      <trkpt lat="51.235323058455" lon="4.474492326467">
        <ele>11.2</ele>
        <time>2019-07-15T09:02:18Z</time>
      </trkpt>
      <trkpt lat="51.23535868153" lon="4.474793236677">
        <ele>7.6</ele>
        <time>2019-07-15T09:02:25Z</time>
      </trkpt>
      <trkpt lat="51.235419953219" lon="4.475120968967">
        <ele>4.8</ele>
        <time>2019-07-15T09:02:32Z</time>
      </trkpt>
      <trkpt lat="51.235478710338" lon="4.475435457855">
        <ele>4.6</ele>
        <time>2019-07-15T09:02:38Z</time>
      </trkpt>
      <trkpt lat="51.235555488542" lon="4.475756149349">
        <ele>6</ele>
        <time>2019-07-15T09:02:44Z</time>
      </trkpt>
      <trkpt lat="51.235623214294" lon="4.47606619583">
        <ele>6.8</ele>
        <time>2019-07-15T09:02:50Z</time>
      </trkpt>
      <trkpt lat="51.23568222287" lon="4.476383702202">
        <ele>6.6</ele>
        <time>2019-07-15T09:02:56Z</time>
      </trkpt>
      <trkpt lat="51.235741482903" lon="4.476695425063">
        <ele>5.2</ele>
        <time>2019-07-15T09:03:02Z</time>
      </trkpt>
      <trkpt lat="51.235823541704" lon="4.476972530677">
        <ele>5.8</ele>
        <time>2019-07-15T09:03:08Z</time>
      </trkpt>
      <trkpt lat="51.235882717918" lon="4.477286432832">
        <ele>6.6</ele>
        <time>2019-07-15T09:03:14Z</time>
      </trkpt>
      <trkpt lat="51.235909204722" lon="4.477583487368">
        <ele>5.6</ele>
        <time>2019-07-15T09:03:20Z</time>
      </trkpt>
      <trkpt lat="51.235963351796" lon="4.477912979857">
        <ele>5</ele>
        <time>2019-07-15T09:03:26Z</time>
      </trkpt>
      <trkpt lat="51.236015235757" lon="4.478237275568">
        <ele>5</ele>
        <time>2019-07-15T09:03:32Z</time>
      </trkpt>
      <trkpt lat="51.236097881291" lon="4.478526702575">
        <ele>4.6</ele>
        <time>2019-07-15T09:03:38Z</time>
      </trkpt>
      <trkpt lat="51.236136689488" lon="4.478833731572">
        <ele>5.6</ele>
        <time>2019-07-15T09:03:44Z</time>
      </trkpt>
      <trkpt lat="51.236132582357" lon="4.479159200749">
        <ele>5.6</ele>
        <time>2019-07-15T09:03:50Z</time>
      </trkpt>
      <trkpt lat="51.23612730176" lon="4.479479221691">
        <ele>7.2</ele>
        <time>2019-07-15T09:03:56Z</time>
      </trkpt>
      <trkpt lat="51.23613736004" lon="4.479782478833">
        <ele>8.8</ele>
        <time>2019-07-15T09:04:02Z</time>
      </trkpt>
      <trkpt lat="51.236138533506" lon="4.480118173928">
        <ele>11.2</ele>
        <time>2019-07-15T09:04:09Z</time>
      </trkpt>
      <trkpt lat="51.236156386953" lon="4.480440038888">
        <ele>17.2</ele>
        <time>2019-07-15T09:04:16Z</time>
      </trkpt>
      <trkpt lat="51.23613400728" lon="4.480759892192">
        <ele>16.6</ele>
        <time>2019-07-15T09:04:22Z</time>
      </trkpt>
      <trkpt lat="51.236101485508" lon="4.481056108538">
        <ele>13.4</ele>
        <time>2019-07-15T09:04:28Z</time>
      </trkpt>
      <trkpt lat="51.236061755302" lon="4.481380152792">
        <ele>10.2</ele>
        <time>2019-07-15T09:04:34Z</time>
      </trkpt>
      <trkpt lat="51.236045326778" lon="4.481675866224">
        <ele>9.4</ele>
        <time>2019-07-15T09:04:40Z</time>
      </trkpt>
      <trkpt lat="51.236028479159" lon="4.482082136917">
        <ele>8.8</ele>
        <time>2019-07-15T09:04:50Z</time>
      </trkpt>
      <trkpt lat="51.235996963215" lon="4.482384052955">
        <ele>5.8</ele>
        <time>2019-07-15T09:04:58Z</time>
      </trkpt>
      <trkpt lat="51.235991682618" lon="4.482676916541">
        <ele>4</ele>
        <time>2019-07-15T09:05:05Z</time>
      </trkpt>
      <trkpt lat="51.235995119197" lon="4.482973300525">
        <ele>2.2</ele>
        <time>2019-07-15T09:05:13Z</time>
      </trkpt>
      <trkpt lat="51.235979277406" lon="4.483294243476">
        <ele>0</ele>
        <time>2019-07-15T09:05:21Z</time>
      </trkpt>
      <trkpt lat="51.235967458927" lon="4.483581491189">
        <ele>0</ele>
        <time>2019-07-15T09:05:28Z</time>
      </trkpt>
      <trkpt lat="51.235974499723" lon="4.483881814666">
        <ele>0</ele>
        <time>2019-07-15T09:05:35Z</time>
      </trkpt>
      <trkpt lat="51.235960837226" lon="4.484180880858">
        <ele>0</ele>
        <time>2019-07-15T09:05:42Z</time>
      </trkpt>
      <trkpt lat="51.235985480012" lon="4.484494531556">
        <ele>0</ele>
        <time>2019-07-15T09:05:49Z</time>
      </trkpt>
      <trkpt lat="51.236003082002" lon="4.484804158942">
        <ele>3.4</ele>
        <time>2019-07-15T09:05:56Z</time>
      </trkpt>
      <trkpt lat="51.23602420439" lon="4.485103308953">
        <ele>4.8</ele>
        <time>2019-07-15T09:06:03Z</time>
      </trkpt>
      <trkpt lat="51.236044153312" lon="4.485415702366">
        <ele>5</ele>
        <time>2019-07-15T09:06:10Z</time>
      </trkpt>
      <trkpt lat="51.236059324551" lon="4.485726251761">
        <ele>7</ele>
        <time>2019-07-15T09:06:17Z</time>
      </trkpt>
      <trkpt lat="51.236065191881" lon="4.486026659057">
        <ele>7.4</ele>
        <time>2019-07-15T09:06:24Z</time>
      </trkpt>
      <trkpt lat="51.23606024656" lon="4.48631390677">
        <ele>8.4</ele>
        <time>2019-07-15T09:06:31Z</time>
      </trkpt>
      <trkpt lat="51.236062258216" lon="4.486615236075">
        <ele>7.2</ele>
        <time>2019-07-15T09:06:39Z</time>
      </trkpt>
      <trkpt lat="51.236096707825" lon="4.486902986702">
        <ele>9.2</ele>
        <time>2019-07-15T09:06:47Z</time>
      </trkpt>
      <trkpt lat="51.236100647318" lon="4.487191826976">
        <ele>9.8</ele>
        <time>2019-07-15T09:06:55Z</time>
      </trkpt>
      <trkpt lat="51.236115483281" lon="4.487506818778">
        <ele>10</ele>
        <time>2019-07-15T09:07:03Z</time>
      </trkpt>
      <trkpt lat="51.236106598467" lon="4.487834634887">
        <ele>10.2</ele>
        <time>2019-07-15T09:07:11Z</time>
      </trkpt>
      <trkpt lat="51.236116321471" lon="4.488132946708">
        <ele>10.6</ele>
        <time>2019-07-15T09:07:18Z</time>
      </trkpt>
      <trkpt lat="51.236117327299" lon="4.488429079235">
        <ele>10.4</ele>
        <time>2019-07-15T09:07:25Z</time>
      </trkpt>
      <trkpt lat="51.236119003679" lon="4.488724373572">
        <ele>10.6</ele>
        <time>2019-07-15T09:07:32Z</time>
      </trkpt>
      <trkpt lat="51.236125373923" lon="4.489023355945">
        <ele>8.4</ele>
        <time>2019-07-15T09:07:39Z</time>
      </trkpt>
      <trkpt lat="51.236145490483" lon="4.489328205648">
        <ele>9.4</ele>
        <time>2019-07-15T09:07:46Z</time>
      </trkpt>
      <trkpt lat="51.236110454141" lon="4.48963565374">
        <ele>9.8</ele>
        <time>2019-07-15T09:07:53Z</time>
      </trkpt>
      <trkpt lat="51.236000567432" lon="4.489742439146">
        <ele>10.2</ele>
        <time>2019-07-15T09:07:58Z</time>
      </trkpt>
      <trkpt lat="51.235947342367" lon="4.489717125808">
        <ele>10.2</ele>
        <time>2019-07-15T09:08:00Z</time>
      </trkpt>
      <trkpt lat="51.235804179515" lon="4.489525599393">
        <ele>9.6</ele>
        <time>2019-07-15T09:08:07Z</time>
      </trkpt>
      <trkpt lat="51.235675349712" lon="4.48932384706">
        <ele>11.2</ele>
        <time>2019-07-15T09:08:14Z</time>
      </trkpt>
      <trkpt lat="51.235541239312" lon="4.489094518276">
        <ele>13</ele>
        <time>2019-07-15T09:08:22Z</time>
      </trkpt>
      <trkpt lat="51.235401596858" lon="4.488859070705">
        <ele>12.2</ele>
        <time>2019-07-15T09:08:30Z</time>
      </trkpt>
      <trkpt lat="51.235279221118" lon="4.488645332255">
        <ele>12.6</ele>
        <time>2019-07-15T09:08:37Z</time>
      </trkpt>
      <trkpt lat="51.235139830121" lon="4.488417512213">
        <ele>12.6</ele>
        <time>2019-07-15T09:08:46Z</time>
      </trkpt>
      <trkpt lat="51.235011000318" lon="4.488217520079">
        <ele>10.6</ele>
        <time>2019-07-15T09:08:53Z</time>
      </trkpt>
      <trkpt lat="51.234873034244" lon="4.487978300653">
        <ele>7.4</ele>
        <time>2019-07-15T09:09:01Z</time>
      </trkpt>
      <trkpt lat="51.234736409274" lon="4.487740841426">
        <ele>5.6</ele>
        <time>2019-07-15T09:09:09Z</time>
      </trkpt>
      <trkpt lat="51.234608836756" lon="4.487489719702">
        <ele>3</ele>
        <time>2019-07-15T09:09:17Z</time>
      </trkpt>
      <trkpt lat="51.234483778808" lon="4.487243710937">
        <ele>1.4</ele>
        <time>2019-07-15T09:09:25Z</time>
      </trkpt>
      <trkpt lat="51.234389398614" lon="4.48696937135">
        <ele>0.4</ele>
        <time>2019-07-15T09:09:33Z</time>
      </trkpt>
      <trkpt lat="51.234282613208" lon="4.486722859671">
        <ele>1.4</ele>
        <time>2019-07-15T09:09:42Z</time>
      </trkpt>
      <trkpt lat="51.234151017378" lon="4.486519095682">
        <ele>5.4</ele>
        <time>2019-07-15T09:09:50Z</time>
      </trkpt>
      <trkpt lat="51.234023025765" lon="4.486290269812">
        <ele>7.8</ele>
        <time>2019-07-15T09:09:58Z</time>
      </trkpt>
      <trkpt lat="51.233897632541" lon="4.48606161158">
        <ele>8.8</ele>
        <time>2019-07-15T09:10:06Z</time>
      </trkpt>
      <trkpt lat="51.233766288168" lon="4.485819290851">
        <ele>11</ele>
        <time>2019-07-15T09:10:14Z</time>
      </trkpt>
      <trkpt lat="51.233634692338" lon="4.485570767516">
        <ele>12.8</ele>
        <time>2019-07-15T09:10:21Z</time>
      </trkpt>
      <trkpt lat="51.233523296887" lon="4.485337163963">
        <ele>11.6</ele>
        <time>2019-07-15T09:10:28Z</time>
      </trkpt>
      <trkpt lat="51.23330595422" lon="4.484913039823">
        <ele>8.6</ele>
        <time>2019-07-15T09:10:39Z</time>
      </trkpt>
      <trkpt lat="51.233175028942" lon="4.484711203671">
        <ele>8.4</ele>
        <time>2019-07-15T09:10:44Z</time>
      </trkpt>
      <trkpt lat="51.233030105891" lon="4.484462847974">
        <ele>7.4</ele>
        <time>2019-07-15T09:10:50Z</time>
      </trkpt>
      <trkpt lat="51.232898426242" lon="4.484235949941">
        <ele>7</ele>
        <time>2019-07-15T09:10:56Z</time>
      </trkpt>
      <trkpt lat="51.232759035245" lon="4.483994132126">
        <ele>3.8</ele>
        <time>2019-07-15T09:11:02Z</time>
      </trkpt>
      <trkpt lat="51.232622661732" lon="4.483737897443">
        <ele>1</ele>
        <time>2019-07-15T09:11:08Z</time>
      </trkpt>
      <trkpt lat="51.232486707314" lon="4.483525583916">
        <ele>0</ele>
        <time>2019-07-15T09:11:14Z</time>
      </trkpt>
      <trkpt lat="51.232330720155" lon="4.483374458259">
        <ele>2</ele>
        <time>2019-07-15T09:11:21Z</time>
      </trkpt>
      <trkpt lat="51.232218151238" lon="4.483104058165">
        <ele>6.4</ele>
        <time>2019-07-15T09:11:27Z</time>
      </trkpt>
      <trkpt lat="51.232081190992" lon="4.482861737436">
        <ele>7.4</ele>
        <time>2019-07-15T09:11:33Z</time>
      </trkpt>
      <trkpt lat="51.232001562942" lon="4.482559989036">
        <ele>3.8</ele>
        <time>2019-07-15T09:11:40Z</time>
      </trkpt>
      <trkpt lat="51.23194808642" lon="4.482255726066">
        <ele>0</ele>
        <time>2019-07-15T09:11:48Z</time>
      </trkpt>
      <trkpt lat="51.231838199711" lon="4.481937549142">
        <ele>0</ele>
        <time>2019-07-15T09:11:54Z</time>
      </trkpt>
      <trkpt lat="51.231788746501" lon="4.481623646987">
        <ele>0.4</ele>
        <time>2019-07-15T09:11:59Z</time>
      </trkpt>
      <trkpt lat="51.231783046809" lon="4.481294908869">
        <ele>2.4</ele>
        <time>2019-07-15T09:12:04Z</time>
      </trkpt>
      <trkpt lat="51.231754548349" lon="4.480980084705">
        <ele>3.2</ele>
        <time>2019-07-15T09:12:09Z</time>
      </trkpt>
      <trkpt lat="51.231732001038" lon="4.480679928866">
        <ele>1.8</ele>
        <time>2019-07-15T09:12:14Z</time>
      </trkpt>
      <trkpt lat="51.23173937711" lon="4.480341886839">
        <ele>5.4</ele>
        <time>2019-07-15T09:12:20Z</time>
      </trkpt>
      <trkpt lat="51.231741472585" lon="4.480054890583">
        <ele>5.2</ele>
        <time>2019-07-15T09:12:25Z</time>
      </trkpt>
      <trkpt lat="51.231725379337" lon="4.479723805533">
        <ele>8.6</ele>
        <time>2019-07-15T09:12:31Z</time>
      </trkpt>
      <trkpt lat="51.23172848064" lon="4.479398252537">
        <ele>10.4</ele>
        <time>2019-07-15T09:12:37Z</time>
      </trkpt>
      <trkpt lat="51.231804169197" lon="4.479120141095">
        <ele>10.6</ele>
        <time>2019-07-15T09:12:42Z</time>
      </trkpt>
      <trkpt lat="51.231902488884" lon="4.478821913093">
        <ele>9.8</ele>
        <time>2019-07-15T09:12:48Z</time>
      </trkpt>
      <trkpt lat="51.23199753963" lon="4.47856735479">
        <ele>9.2</ele>
        <time>2019-07-15T09:12:53Z</time>
      </trkpt>
      <trkpt lat="51.231931574077" lon="4.478274491204">
        <ele>9.2</ele>
        <time>2019-07-15T09:12:59Z</time>
      </trkpt>
      <trkpt lat="51.231797798953" lon="4.478004007291">
        <ele>8.8</ele>
        <time>2019-07-15T09:13:05Z</time>
      </trkpt>
      <trkpt lat="51.231669388245" lon="4.477781886941">
        <ele>9.8</ele>
        <time>2019-07-15T09:13:10Z</time>
      </trkpt>
      <trkpt lat="51.231552796016" lon="4.477511738304">
        <ele>11.2</ele>
        <time>2019-07-15T09:13:16Z</time>
      </trkpt>
      <trkpt lat="51.231425810231" lon="4.477247289359">
        <ele>13</ele>
        <time>2019-07-15T09:13:22Z</time>
      </trkpt>
      <trkpt lat="51.231317599902" lon="4.476980912577">
        <ele>13.2</ele>
        <time>2019-07-15T09:13:28Z</time>
      </trkpt>
      <trkpt lat="51.231199750388" lon="4.476748650128">
        <ele>11</ele>
        <time>2019-07-15T09:13:33Z</time>
      </trkpt>
      <trkpt lat="51.231086008005" lon="4.476466683012">
        <ele>8.6</ele>
        <time>2019-07-15T09:13:39Z</time>
      </trkpt>
      <trkpt lat="51.230974277278" lon="4.476224446102">
        <ele>6.8</ele>
        <time>2019-07-15T09:13:45Z</time>
      </trkpt>
      <trkpt lat="51.230870090261" lon="4.475934180905">
        <ele>4.8</ele>
        <time>2019-07-15T09:13:51Z</time>
      </trkpt>
      <trkpt lat="51.230753330394" lon="4.475662858802">
        <ele>2.2</ele>
        <time>2019-07-15T09:13:57Z</time>
      </trkpt>
      <trkpt lat="51.230642018762" lon="4.475418861693">
        <ele>1.6</ele>
        <time>2019-07-15T09:14:02Z</time>
      </trkpt>
      <trkpt lat="51.230501873394" lon="4.475164135752">
        <ele>4.4</ele>
        <time>2019-07-15T09:14:08Z</time>
      </trkpt>
      <trkpt lat="51.230366002795" lon="4.474897675151">
        <ele>6.2</ele>
        <time>2019-07-15T09:14:14Z</time>
      </trkpt>
      <trkpt lat="51.230280675053" lon="4.474618138786">
        <ele>10.4</ele>
        <time>2019-07-15T09:14:20Z</time>
      </trkpt>
      <trkpt lat="51.230161819711" lon="4.474357042601">
        <ele>12.4</ele>
        <time>2019-07-15T09:14:26Z</time>
      </trkpt>
      <trkpt lat="51.230048412604" lon="4.474104747411">
        <ele>13.8</ele>
        <time>2019-07-15T09:14:32Z</time>
      </trkpt>
      <trkpt lat="51.229930814547" lon="4.473860834121">
        <ele>15.2</ele>
        <time>2019-07-15T09:14:38Z</time>
      </trkpt>
      <trkpt lat="51.229809528454" lon="4.473598061556">
        <ele>12.8</ele>
        <time>2019-07-15T09:14:44Z</time>
      </trkpt>
      <trkpt lat="51.229672652027" lon="4.47334710747">
        <ele>11.6</ele>
        <time>2019-07-15T09:14:50Z</time>
      </trkpt>
      <trkpt lat="51.229478946318" lon="4.472877301975">
        <ele>7.8</ele>
        <time>2019-07-15T09:15:00Z</time>
      </trkpt>
      <trkpt lat="51.229373502016" lon="4.472611679564">
        <ele>6</ele>
        <time>2019-07-15T09:15:09Z</time>
      </trkpt>
      <trkpt lat="51.229278870365" lon="4.472335495959">
        <ele>10.2</ele>
        <time>2019-07-15T09:15:18Z</time>
      </trkpt>
      <trkpt lat="51.229182310877" lon="4.472067107521">
        <ele>10</ele>
        <time>2019-07-15T09:15:26Z</time>
      </trkpt>
      <trkpt lat="51.229074854919" lon="4.471832246683">
        <ele>9.6</ele>
        <time>2019-07-15T09:15:33Z</time>
      </trkpt>
      <trkpt lat="51.228948874962" lon="4.471622783002">
        <ele>9.4</ele>
        <time>2019-07-15T09:15:40Z</time>
      </trkpt>
      <trkpt lat="51.228823230281" lon="4.471375600771">
        <ele>8.2</ele>
        <time>2019-07-15T09:15:48Z</time>
      </trkpt>
      <trkpt lat="51.228710661364" lon="4.471110900369">
        <ele>8.2</ele>
        <time>2019-07-15T09:15:56Z</time>
      </trkpt>
      <trkpt lat="51.228592895669" lon="4.470846116148">
        <ele>9.2</ele>
        <time>2019-07-15T09:16:04Z</time>
      </trkpt>
      <trkpt lat="51.228485104435" lon="4.470571944199">
        <ele>10</ele>
        <time>2019-07-15T09:16:12Z</time>
      </trkpt>
      <trkpt lat="51.228361555229" lon="4.470341609587">
        <ele>9.6</ele>
        <time>2019-07-15T09:16:20Z</time>
      </trkpt>
      <trkpt lat="51.228256027108" lon="4.470104569455">
        <ele>9.6</ele>
        <time>2019-07-15T09:16:27Z</time>
      </trkpt>
      <trkpt lat="51.228144715476" lon="4.469853699188">
        <ele>8.4</ele>
        <time>2019-07-15T09:16:34Z</time>
      </trkpt>
      <trkpt lat="51.228026865962" lon="4.46959704541">
        <ele>7</ele>
        <time>2019-07-15T09:16:42Z</time>
      </trkpt>
      <trkpt lat="51.227916476339" lon="4.469321532357">
        <ele>6</ele>
        <time>2019-07-15T09:16:50Z</time>
      </trkpt>
      <trkpt lat="51.227821341774" lon="4.469043756191">
        <ele>8.2</ele>
        <time>2019-07-15T09:16:58Z</time>
      </trkpt>
      <trkpt lat="51.227795609341" lon="4.468756927573">
        <ele>8.2</ele>
        <time>2019-07-15T09:17:05Z</time>
      </trkpt>
      <trkpt lat="51.227747832511" lon="4.468467332928">
        <ele>7</ele>
        <time>2019-07-15T09:17:12Z</time>
      </trkpt>
      <trkpt lat="51.227688321021" lon="4.468193412436">
        <ele>5.4</ele>
        <time>2019-07-15T09:17:19Z</time>
      </trkpt>
      <trkpt lat="51.227613135378" lon="4.467922844704">
        <ele>5.4</ele>
        <time>2019-07-15T09:17:26Z</time>
      </trkpt>
      <trkpt lat="51.227543649427" lon="4.467643308339">
        <ele>3.4</ele>
        <time>2019-07-15T09:17:33Z</time>
      </trkpt>
      <trkpt lat="51.22746712268" lon="4.467337452808">
        <ele>4.4</ele>
        <time>2019-07-15T09:17:41Z</time>
      </trkpt>
      <trkpt lat="51.227395373616" lon="4.467072584768">
        <ele>4.4</ele>
        <time>2019-07-15T09:17:48Z</time>
      </trkpt>
      <trkpt lat="51.227371401382" lon="4.466806878538">
        <ele>6</ele>
        <time>2019-07-15T09:17:55Z</time>
      </trkpt>
      <trkpt lat="51.227562424883" lon="4.466723394814">
        <ele>9</ele>
        <time>2019-07-15T09:18:03Z</time>
      </trkpt>
      <trkpt lat="51.227731823082" lon="4.466607389318">
        <ele>7.8</ele>
        <time>2019-07-15T09:18:10Z</time>
      </trkpt>
      <trkpt lat="51.227883954567" lon="4.466401194578">
        <ele>9.4</ele>
        <time>2019-07-15T09:18:16Z</time>
      </trkpt>
      <trkpt lat="51.228027452695" lon="4.466211428362">
        <ele>10.4</ele>
        <time>2019-07-15T09:18:24Z</time>
      </trkpt>
      <trkpt lat="51.228191402659" lon="4.46600875402">
        <ele>9.8</ele>
        <time>2019-07-15T09:18:32Z</time>
      </trkpt>
      <trkpt lat="51.228353340967" lon="4.465821167098">
        <ele>13</ele>
        <time>2019-07-15T09:18:40Z</time>
      </trkpt>
      <trkpt lat="51.228521230424" lon="4.465652858546">
        <ele>15.8</ele>
        <time>2019-07-15T09:18:47Z</time>
      </trkpt>
      <trkpt lat="51.228626087993" lon="4.465428307445">
        <ele>15.6</ele>
        <time>2019-07-15T09:18:54Z</time>
      </trkpt>
      <trkpt lat="51.22861209022" lon="4.465112645091">
        <ele>12.4</ele>
        <time>2019-07-15T09:19:02Z</time>
      </trkpt>
      <trkpt lat="51.228545957029" lon="4.464822547532">
        <ele>9.2</ele>
        <time>2019-07-15T09:19:10Z</time>
      </trkpt>
      <trkpt lat="51.228514441085" lon="4.464514764164">
        <ele>6</ele>
        <time>2019-07-15T09:19:18Z</time>
      </trkpt>
      <trkpt lat="51.228600187922" lon="4.464275628557">
        <ele>7.4</ele>
        <time>2019-07-15T09:19:24Z</time>
      </trkpt>
      <trkpt lat="51.228787439568" lon="4.464184768761">
        <ele>10.6</ele>
        <time>2019-07-15T09:19:31Z</time>
      </trkpt>
      <trkpt lat="51.228989694815" lon="4.464180326354">
        <ele>9.2</ele>
        <time>2019-07-15T09:19:38Z</time>
      </trkpt>
      <trkpt lat="51.229188010569" lon="4.464171273902">
        <ele>7</ele>
        <time>2019-07-15T09:19:45Z</time>
      </trkpt>
      <trkpt lat="51.229384482305" lon="4.464190803729">
        <ele>2.4</ele>
        <time>2019-07-15T09:19:53Z</time>
      </trkpt>
      <trkpt lat="51.229568716467" lon="4.464168424056">
        <ele>0.2</ele>
        <time>2019-07-15T09:20:01Z</time>
      </trkpt>
      <trkpt lat="51.229762589814" lon="4.464085443246">
        <ele>4.6</ele>
        <time>2019-07-15T09:20:07Z</time>
      </trkpt>
      <trkpt lat="51.229944057949" lon="4.464056944786">
        <ele>5.6</ele>
        <time>2019-07-15T09:20:14Z</time>
      </trkpt>
      <trkpt lat="51.230104738972" lon="4.463885954026">
        <ele>6.6</ele>
        <time>2019-07-15T09:20:22Z</time>
      </trkpt>
      <trkpt lat="51.230263743615" lon="4.463686045711">
        <ele>6.4</ele>
        <time>2019-07-15T09:20:30Z</time>
      </trkpt>
      <trkpt lat="51.230330128263" lon="4.463468032492">
        <ele>6.6</ele>
        <time>2019-07-15T09:20:36Z</time>
      </trkpt>
      <trkpt lat="51.230176655674" lon="4.463056565021">
        <ele>4.6</ele>
        <time>2019-07-15T09:20:46Z</time>
      </trkpt>
      <trkpt lat="51.230089903009" lon="4.462782141615">
        <ele>4.6</ele>
        <time>2019-07-15T09:20:52Z</time>
      </trkpt>
      <trkpt lat="51.230015052642" lon="4.462491038228">
        <ele>6</ele>
        <time>2019-07-15T09:20:59Z</time>
      </trkpt>
      <trkpt lat="51.229918157878" lon="4.462171101105">
        <ele>6.2</ele>
        <time>2019-07-15T09:21:06Z</time>
      </trkpt>
      <trkpt lat="51.229837859276" lon="4.461891816197">
        <ele>4.4</ele>
        <time>2019-07-15T09:21:14Z</time>
      </trkpt>
      <trkpt lat="51.229765020565" lon="4.461594677842">
        <ele>3.6</ele>
        <time>2019-07-15T09:21:21Z</time>
      </trkpt>
      <trkpt lat="51.229700563754" lon="4.461303909731">
        <ele>6.2</ele>
        <time>2019-07-15T09:21:27Z</time>
      </trkpt>
      <trkpt lat="51.229563352051" lon="4.461082879028">
        <ele>6.6</ele>
        <time>2019-07-15T09:21:34Z</time>
      </trkpt>
      <trkpt lat="51.229379285527" lon="4.46103241999">
        <ele>5.8</ele>
        <time>2019-07-15T09:21:41Z</time>
      </trkpt>
      <trkpt lat="51.229188262026" lon="4.461052955645">
        <ele>4.2</ele>
        <time>2019-07-15T09:21:48Z</time>
      </trkpt>
      <trkpt lat="51.22898592296" lon="4.461085058322">
        <ele>2.8</ele>
        <time>2019-07-15T09:21:55Z</time>
      </trkpt>
      <trkpt lat="51.228784422084" lon="4.461175582842">
        <ele>15.4</ele>
        <time>2019-07-15T09:22:03Z</time>
      </trkpt>
      <trkpt lat="51.228585435778" lon="4.461279937497">
        <ele>35.4</ele>
        <time>2019-07-15T09:22:10Z</time>
      </trkpt>
      <trkpt lat="51.228333559683" lon="4.461297623306">
        <ele>45.4</ele>
        <time>2019-07-15T09:22:14Z</time>
      </trkpt>
      <trkpt lat="51.228196012704" lon="4.461124453252">
        <ele>49.4</ele>
        <time>2019-07-15T09:22:18Z</time>
      </trkpt>
      <trkpt lat="51.228084701072" lon="4.460791691822">
        <ele>36</ele>
        <time>2019-07-15T09:22:24Z</time>
      </trkpt>
      <trkpt lat="51.228062740494" lon="4.460576696087">
        <ele>26.4</ele>
        <time>2019-07-15T09:22:27Z</time>
      </trkpt>
      <trkpt lat="51.228181176741" lon="4.46034761876">
        <ele>22.4</ele>
        <time>2019-07-15T09:22:32Z</time>
      </trkpt>
      <trkpt lat="51.228299864445" lon="4.460080152331">
        <ele>17.8</ele>
        <time>2019-07-15T09:22:39Z</time>
      </trkpt>
      <trkpt lat="51.228371026776" lon="4.459763065054">
        <ele>15.8</ele>
        <time>2019-07-15T09:22:46Z</time>
      </trkpt>
      <trkpt lat="51.228474291784" lon="4.459477242264">
        <ele>13.6</ele>
        <time>2019-07-15T09:22:53Z</time>
      </trkpt>
      <trkpt lat="51.228490301213" lon="4.45917666733">
        <ele>7.8</ele>
        <time>2019-07-15T09:23:00Z</time>
      </trkpt>
      <trkpt lat="51.228488541014" lon="4.45888413902">
        <ele>5.6</ele>
        <time>2019-07-15T09:23:07Z</time>
      </trkpt>
      <trkpt lat="51.228456857432" lon="4.458590688701">
        <ele>2.2</ele>
        <time>2019-07-15T09:23:14Z</time>
      </trkpt>
      <trkpt lat="51.228450487188" lon="4.458298914762">
        <ele>0.6</ele>
        <time>2019-07-15T09:23:21Z</time>
      </trkpt>
      <trkpt lat="51.228480997304" lon="4.45800236314">
        <ele>2.4</ele>
        <time>2019-07-15T09:23:27Z</time>
      </trkpt>
      <trkpt lat="51.228455264871" lon="4.457718049092">
        <ele>4</ele>
        <time>2019-07-15T09:23:33Z</time>
      </trkpt>
      <trkpt lat="51.228421234357" lon="4.457392412277">
        <ele>5.4</ele>
        <time>2019-07-15T09:23:40Z</time>
      </trkpt>
      <trkpt lat="51.228440848003" lon="4.457255116755">
        <ele>8.4</ele>
        <time>2019-07-15T09:23:43Z</time>
      </trkpt>
      <trkpt lat="51.228608318365" lon="4.457142044924">
        <ele>12</ele>
        <time>2019-07-15T09:23:49Z</time>
      </trkpt>
      <trkpt lat="51.228794312726" lon="4.45707029586">
        <ele>14.4</ele>
        <time>2019-07-15T09:23:55Z</time>
      </trkpt>
      <trkpt lat="51.228987515521" lon="4.456958565133">
        <ele>20.2</ele>
        <time>2019-07-15T09:24:02Z</time>
      </trkpt>
      <trkpt lat="51.229167977828" lon="4.456846750587">
        <ele>24.2</ele>
        <time>2019-07-15T09:24:09Z</time>
      </trkpt>
      <trkpt lat="51.229366377401" lon="4.456729655444">
        <ele>28</ele>
        <time>2019-07-15T09:24:16Z</time>
      </trkpt>
      <trkpt lat="51.229560669843" lon="4.456629743196">
        <ele>31.6</ele>
        <time>2019-07-15T09:24:23Z</time>
      </trkpt>
      <trkpt lat="51.229744736367" lon="4.456541649427">
        <ele>36.6</ele>
        <time>2019-07-15T09:24:30Z</time>
      </trkpt>
      <trkpt lat="51.229926120683" lon="4.456463949214">
        <ele>37.2</ele>
        <time>2019-07-15T09:24:37Z</time>
      </trkpt>
      <trkpt lat="51.23012669955" lon="4.456429415786">
        <ele>34.4</ele>
        <time>2019-07-15T09:24:45Z</time>
      </trkpt>
      <trkpt lat="51.230328116607" lon="4.456391026684">
        <ele>30.4</ele>
        <time>2019-07-15T09:24:52Z</time>
      </trkpt>
      <trkpt lat="51.230504555602" lon="4.456327324244">
        <ele>29.8</ele>
        <time>2019-07-15T09:24:58Z</time>
      </trkpt>
      <trkpt lat="51.230691220515" lon="4.456276697568">
        <ele>31.6</ele>
        <time>2019-07-15T09:25:04Z</time>
      </trkpt>
      <trkpt lat="51.230898253445" lon="4.456213498042">
        <ele>31.8</ele>
        <time>2019-07-15T09:25:10Z</time>
      </trkpt>
      <trkpt lat="51.231100508692" lon="4.456129092309">
        <ele>33.4</ele>
        <time>2019-07-15T09:25:16Z</time>
      </trkpt>
      <trkpt lat="51.231129761523" lon="4.456126913015">
        <ele>34.6</ele>
        <time>2019-07-15T09:25:17Z</time>
      </trkpt>
      <trkpt lat="51.231183405683" lon="4.456266052555">
        <ele>28.8</ele>
        <time>2019-07-15T09:25:19Z</time>
      </trkpt>
      <trkpt lat="51.231234535273" lon="4.456541649427">
        <ele>16.6</ele>
        <time>2019-07-15T09:25:22Z</time>
      </trkpt>
      <trkpt lat="51.231240821698" lon="4.456842643456">
        <ele>8.8</ele>
        <time>2019-07-15T09:25:27Z</time>
      </trkpt>
      <trkpt lat="51.231210646858" lon="4.457396100313">
        <ele>2.4</ele>
        <time>2019-07-15T09:25:38Z</time>
      </trkpt>
      <trkpt lat="51.231098748493" lon="4.457622579251">
        <ele>2.2</ele>
        <time>2019-07-15T09:25:44Z</time>
      </trkpt>
      <trkpt lat="51.230909820467" lon="4.457656777403">
        <ele>1.8</ele>
        <time>2019-07-15T09:25:50Z</time>
      </trkpt>
      <trkpt lat="51.230771183841" lon="4.457648982236">
        <ele>1.4</ele>
        <time>2019-07-15T09:25:54Z</time>
      </trkpt>
    </trkseg>
  </trk>
</gpx>